Flight Track Log - Related Links

Times and Time Zones

All times are in EDT time to prevent confusion due to time zone crossing. See the KAP927 flight status page for this flight to view local times or setup timezone preferences in your user account.

Time Position Orientation Groundspeed Altitude Reporting Facility
EDT Latitude Longitude Course Direction KTS MPH feet Rate Location/Type
Sat 01:07:27 PM 42.3667 -71.0167 236° Southwest 87 100 400  Level KA90
Sat 01:08:44 PM 42.3500 -71.0500 236° Southwest 103 119 1,100 475 Climbing KA90
Sat 01:09:46 PM 42.3333 -71.1000 246° West 116 133 1,500 513 Climbing KA90
Sat 01:10:41 PM 42.3500 -71.1333 304° West 119 137 2,100 621 Climbing KA90
Sat 01:11:42 PM 42.3500 -71.1833 270° West 118 136 2,700 550 Climbing KA90
Sat 01:12:41 PM 42.3500 -71.2167 270° West 123 142 3,200 517 Climbing KA90
Sat 01:13:38 PM 42.3667 -71.2667 294° West 128 147 3,700 483 Climbing KA90
Sat 01:14:08 PM 42.3694 -71.2908 279° West 130 150 3,900 533 Climbing Boston Center
Sat 01:15:08 PM 42.3764 -71.3356 282° West 135 155 4,500 688 Climbing Boston Center
Sat 01:15:44 PM 42.3833 -71.3667 287° West 123 142 5,000 673 Climbing KA90
Sat 01:16:46 PM 42.3833 -71.4167 270° West 116 133 5,600 524 Climbing KA90
Sat 01:17:50 PM 42.4000 -71.4667 294° West 124 143 6,100 454 Climbing KA90
Sat 01:18:45 PM 42.4000 -71.5000 270° West 127 146 6,500 455 Climbing KA90
Sat 01:21:08 PM 42.4203 -71.6075 284° West 127 146 7,600 473 Climbing Boston Center
Sat 01:22:08 PM 42.4289 -71.6581 283° West 127 146 8,100 400 Climbing Boston Center
Sat 01:23:08 PM 42.4356 -71.6975 283° West 122 140 8,400 200 Climbing Boston Center
Sat 01:24:08 PM 42.4442 -71.7508 282° West 133 153 8,500 50 Climbing Boston Center
Sat 01:25:08 PM 42.4508 -71.8014 280° West 146 168 8,500  Level Boston Center
Sat 01:26:08 PM 42.4614 -71.8631 283° West 156 180 8,500  Level Boston Center
Sat 01:27:08 PM 42.4700 -71.9139 283° West 161 185 8,500  Level Boston Center
Sat 01:28:08 PM 42.4767 -71.9728 279° West 156 180 8,500  Level Boston Center
Sat 01:29:08 PM 42.4850 -72.0206 283° West 150 173 8,500  Level Boston Center
Sat 01:30:08 PM 42.4936 -72.0797 281° West 145 167 8,500  Level Boston Center
Sat 01:31:08 PM 42.5000 -72.1247 281° West 145 167 8,500  Level Boston Center
Sat 01:32:08 PM 42.5106 -72.1839 284° West 145 167 8,500  Level Boston Center
Sat 01:33:08 PM 42.5169 -72.2317 280° West 145 167 8,500  Level Boston Center
Sat 01:34:08 PM 42.5275 -72.2881 284° West 145 167 8,500  Level Boston Center
Sat 01:35:08 PM 42.5358 -72.3414 282° West 150 173 8,500  Level Boston Center
Sat 01:36:08 PM 42.5442 -72.3950 282° West 145 167 8,500  Level Boston Center
Sat 01:37:08 PM 42.5525 -72.4458 283° West 145 167 8,500  Level Boston Center
Sat 01:38:08 PM 42.5608 -72.4964 283° West 145 167 8,500 45 Level Boston Center
Sat 01:39:20 PM 42.5669 -72.5500 279° West 145 167 8,600  Climbing Boston Center
Sat 01:40:20 PM 42.5817 -72.6092 289° West 145 167 8,500 -265 Descending Boston Center
Sat 01:41:13 PM 42.5856 -72.6572 276° West 143 165 8,100 -372 Descending Boston Center
Sat 01:42:13 PM 42.5897 -72.7164 275° West 159 183 7,800 -198 Descending Boston Center
Sat 01:43:14 PM 42.6019 -72.7758 286° West 159 183 7,700 -189 Descending Boston Center
Sat 01:44:20 PM 42.6164 -72.8378 288° West 163 188 7,400 -238 Descending Boston Center
Sat 01:45:20 PM 42.6286 -72.8972 286° West 163 188 7,200 -310 Descending Boston Center
Sat 01:46:16 PM 42.6389 -72.9508 285° West 166 191 6,800 -410 Descending Boston Center
Sat 01:47:17 PM 42.6511 -73.0131 285° West 169 194 6,400 -365 Descending Boston Center
Sat 01:48:11 PM 42.6614 -73.0669 285° West 167 192 6,100 -261 Descending Boston Center
Sat 01:49:12 PM 42.6733 -73.1264 285° West 158 182 5,900 -375 Descending Boston Center
Sat 01:50:19 PM 42.6856 -73.1969 283° West 164 189 5,300 -563 Descending Boston Center
Sat 01:51:20 PM 42.6975 -73.2594 285° West 163 188 4,700 -496 Descending Boston Center
Sat 01:52:20 PM 42.7056 -73.3158 281° West 168 193 4,300 -472 Descending Boston Center
Sat 01:53:27 PM 42.7194 -73.3925 284° West 167 192 3,700 -443 Descending Boston Center
Sat 01:54:22 PM 42.7294 -73.4492 284° West 166 191 3,400 -212 Descending Boston Center
Sat 01:55:20 PM 42.7392 -73.5058 283° West 168 193 3,300 -298 Descending Boston Center
Sat 01:56:23 PM 42.7428 -73.5767 274° West 169 194 2,800 -435 Descending Boston Center
Sat 01:57:24 PM 42.7464 -73.6389 275° West 177 204 2,400 -574 Descending Boston Center
Sat 01:58:18 PM 42.7519 -73.6956 278° West 168 193 1,700 -730 Descending Boston Center
Sat 01:59:19 PM 42.7492 -73.7547 266° West 151 174 1,000 -689 Descending Boston Center
Sat 02:01:00 PM 42.7333 -73.8000 270° West  Level FlightAware Approximate

Login

Don't have an account? Register now (free) for customized features, flight alerts, and more!